sensor_id;sensor_type;location;lat;lon;timestamp;pressure;altitude;pressure_sealevel;temperature;humidity
39267;BME280;24967;51.154;13.812;2023-05-20T00:00:36;100266.13;;;14.23;72.31
39267;BME280;24967;51.154;13.812;2023-05-20T00:03:03;100261.78;;;14.04;73.35
39267;BME280;24967;51.154;13.812;2023-05-20T00:05:29;100261.56;;;13.97;73.61
39267;BME280;24967;51.154;13.812;2023-05-20T00:07:56;100267.75;;;13.97;73.25
39267;BME280;24967;51.154;13.812;2023-05-20T00:10:22;100261.16;;;14.10;73.31
39267;BME280;24967;51.154;13.812;2023-05-20T00:12:50;100255.06;;;14.00;73.53
39267;BME280;24967;51.154;13.812;2023-05-20T00:15:16;100264.50;;;14.12;73.10
39267;BME280;24967;51.154;13.812;2023-05-20T00:17:43;100259.78;;;14.06;72.85
39267;BME280;24967;51.154;13.812;2023-05-20T00:20:10;100248.06;;;13.98;73.04
39267;BME280;24967;51.154;13.812;2023-05-20T00:22:36;100251.19;;;13.94;73.64
39267;BME280;24967;51.154;13.812;2023-05-20T00:25:04;100247.75;;;13.84;73.64
39267;BME280;24967;51.154;13.812;2023-05-20T00:27:30;100244.56;;;13.80;73.81
39267;BME280;24967;51.154;13.812;2023-05-20T00:29:58;100246.75;;;13.85;73.62
39267;BME280;24967;51.154;13.812;2023-05-20T00:32:25;100249.09;;;13.62;74.96
39267;BME280;24967;51.154;13.812;2023-05-20T00:34:55;100244.63;;;13.70;74.82
39267;BME280;24967;51.154;13.812;2023-05-20T00:37:22;100244.19;;;13.75;73.98
39267;BME280;24967;51.154;13.812;2023-05-20T00:39:48;100243.78;;;13.70;73.80
39267;BME280;24967;51.154;13.812;2023-05-20T00:42:19;100244.00;;;13.77;73.76
39267;BME280;24967;51.154;13.812;2023-05-20T00:44:45;100246.03;;;13.74;73.71
39267;BME280;24967;51.154;13.812;2023-05-20T00:47:13;100248.16;;;13.89;73.37
39267;BME280;24967;51.154;13.812;2023-05-20T00:49:40;100252.91;;;14.03;72.77
39267;BME280;24967;51.154;13.812;2023-05-20T00:52:07;100257.81;;;14.08;72.11
39267;BME280;24967;51.154;13.812;2023-05-20T00:54:34;100257.19;;;14.14;71.87
39267;BME280;24967;51.154;13.812;2023-05-20T00:57:00;100260.91;;;14.21;71.33
39267;BME280;24967;51.154;13.812;2023-05-20T00:59:28;100260.13;;;14.29;71.18
39267;BME280;24967;51.154;13.812;2023-05-20T01:01:55;100264.16;;;14.33;71.08
39267;BME280;24967;51.154;13.812;2023-05-20T01:04:23;100263.19;;;14.16;71.58
39267;BME280;24967;51.154;13.812;2023-05-20T01:06:50;100261.59;;;14.23;71.56
39267;BME280;24967;51.154;13.812;2023-05-20T01:09:17;100262.63;;;14.30;71.38
39267;BME280;24967;51.154;13.812;2023-05-20T01:11:47;100258.13;;;14.31;71.00
39267;BME280;24967;51.154;13.812;2023-05-20T01:14:17;100255.69;;;14.37;70.78
39267;BME280;24967;51.154;13.812;2023-05-20T01:16:47;100257.72;;;14.43;70.58
39267;BME280;24967;51.154;13.812;2023-05-20T01:19:21;100258.19;;;14.39;71.04
39267;BME280;24967;51.154;13.812;2023-05-20T01:21:54;100253.09;;;14.28;71.37
39267;BME280;24967;51.154;13.812;2023-05-20T01:24:23;100254.31;;;14.33;70.99
39267;BME280;24967;51.154;13.812;2023-05-20T01:26:49;100259.50;;;14.35;71.27
39267;BME280;24967;51.154;13.812;2023-05-20T01:29:16;100254.69;;;14.38;71.29
39267;BME280;24967;51.154;13.812;2023-05-20T01:31:43;100250.16;;;14.39;71.12
39267;BME280;24967;51.154;13.812;2023-05-20T01:34:11;100250.69;;;14.42;70.94
39267;BME280;24967;51.154;13.812;2023-05-20T01:36:38;100258.25;;;14.47;71.07
39267;BME280;24967;51.154;13.812;2023-05-20T01:39:05;100257.56;;;14.45;71.05
39267;BME280;24967;51.154;13.812;2023-05-20T01:41:34;100256.88;;;14.43;71.34
39267;BME280;24967;51.154;13.812;2023-05-20T01:44:01;100260.41;;;14.43;71.31
39267;BME280;24967;51.154;13.812;2023-05-20T01:46:31;100258.75;;;14.51;71.18
39267;BME280;24967;51.154;13.812;2023-05-20T01:48:58;100255.06;;;14.43;71.17
39267;BME280;24967;51.154;13.812;2023-05-20T01:51:25;100265.75;;;14.43;71.43
39267;BME280;24967;51.154;13.812;2023-05-20T01:53:52;100263.75;;;14.46;71.68
39267;BME280;24967;51.154;13.812;2023-05-20T01:56:18;100259.66;;;14.33;71.80
39267;BME280;24967;51.154;13.812;2023-05-20T01:58:47;100262.31;;;14.33;72.03
39267;BME280;24967;51.154;13.812;2023-05-20T02:01:14;100264.06;;;14.16;73.16
39267;BME280;24967;51.154;13.812;2023-05-20T02:03:40;100261.41;;;14.16;72.93
39267;BME280;24967;51.154;13.812;2023-05-20T02:06:06;100261.69;;;14.13;73.03
39267;BME280;24967;51.154;13.812;2023-05-20T02:08:33;100256.88;;;14.17;73.19
39267;BME280;24967;51.154;13.812;2023-05-20T02:10:59;100252.50;;;14.16;73.41
39267;BME280;24967;51.154;13.812;2023-05-20T02:13:26;100254.28;;;14.25;72.97
39267;BME280;24967;51.154;13.812;2023-05-20T02:15:54;100250.09;;;14.31;72.85
39267;BME280;24967;51.154;13.812;2023-05-20T02:18:20;100256.00;;;14.34;72.63
39267;BME280;24967;51.154;13.812;2023-05-20T02:20:46;100260.66;;;14.32;72.76
39267;BME280;24967;51.154;13.812;2023-05-20T02:23:13;100254.19;;;14.17;73.16
39267;BME280;24967;51.154;13.812;2023-05-20T02:25:40;100257.81;;;14.08;73.69
39267;BME280;24967;51.154;13.812;2023-05-20T02:28:06;100253.81;;;14.12;73.52
39267;BME280;24967;51.154;13.812;2023-05-20T02:30:35;100256.25;;;14.23;73.33
39267;BME280;24967;51.154;13.812;2023-05-20T02:33:03;100245.72;;;14.04;73.98
39267;BME280;24967;51.154;13.812;2023-05-20T02:35:29;100244.13;;;14.11;73.87
39267;BME280;24967;51.154;13.812;2023-05-20T02:37:56;100257.84;;;14.16;73.77
39267;BME280;24967;51.154;13.812;2023-05-20T02:40:22;100256.44;;;14.04;74.48
39267;BME280;24967;51.154;13.812;2023-05-20T02:42:49;100258.28;;;13.85;75.47
39267;BME280;24967;51.154;13.812;2023-05-20T02:45:15;100247.00;;;13.73;75.58
39267;BME280;24967;51.154;13.812;2023-05-20T02:47:42;100252.50;;;13.72;76.02
39267;BME280;24967;51.154;13.812;2023-05-20T02:50:10;100245.31;;;13.72;76.03
39267;BME280;24967;51.154;13.812;2023-05-20T02:52:36;100249.34;;;13.77;76.16
39267;BME280;24967;51.154;13.812;2023-05-20T02:55:07;100242.03;;;13.79;75.71
39267;BME280;24967;51.154;13.812;2023-05-20T02:57:33;100232.13;;;13.89;75.66
39267;BME280;24967;51.154;13.812;2023-05-20T03:00:03;100231.34;;;13.79;75.42
39267;BME280;24967;51.154;13.812;2023-05-20T03:02:30;100230.81;;;13.75;76.14
39267;BME280;24967;51.154;13.812;2023-05-20T03:04:56;100227.97;;;13.77;75.75
39267;BME280;24967;51.154;13.812;2023-05-20T03:07:24;100225.47;;;13.93;75.40
39267;BME280;24967;51.154;13.812;2023-05-20T03:09:51;100225.16;;;13.78;75.62
39267;BME280;24967;51.154;13.812;2023-05-20T03:12:17;100221.50;;;13.61;76.45
39267;BME280;24967;51.154;13.812;2023-05-20T03:14:44;100217.69;;;13.64;76.82
39267;BME280;24967;51.154;13.812;2023-05-20T03:17:10;100212.53;;;13.62;76.82
39267;BME280;24967;51.154;13.812;2023-05-20T03:19:36;100205.22;;;13.46;77.18
39267;BME280;24967;51.154;13.812;2023-05-20T03:22:03;100199.63;;;13.40;77.91
39267;BME280;24967;51.154;13.812;2023-05-20T03:24:31;100200.53;;;13.48;78.17
39267;BME280;24967;51.154;13.812;2023-05-20T03:26:58;100204.91;;;13.49;78.33
39267;BME280;24967;51.154;13.812;2023-05-20T03:29:24;100212.00;;;13.41;78.21
39267;BME280;24967;51.154;13.812;2023-05-20T03:31:50;100217.38;;;13.49;78.31
39267;BME280;24967;51.154;13.812;2023-05-20T03:34:17;100216.25;;;13.51;77.76
39267;BME280;24967;51.154;13.812;2023-05-20T03:36:43;100210.91;;;13.51;78.11
39267;BME280;24967;51.154;13.812;2023-05-20T03:39:10;100217.16;;;13.42;78.65
39267;BME280;24967;51.154;13.812;2023-05-20T03:41:38;100214.72;;;13.49;78.43
39267;BME280;24967;51.154;13.812;2023-05-20T03:44:04;100212.44;;;13.54;78.29
39267;BME280;24967;51.154;13.812;2023-05-20T03:46:31;100223.34;;;13.61;78.45
39267;BME280;24967;51.154;13.812;2023-05-20T03:48:58;100220.06;;;13.49;78.88
39267;BME280;24967;51.154;13.812;2023-05-20T03:51:26;100219.91;;;13.68;78.11
39267;BME280;24967;51.154;13.812;2023-05-20T03:53:52;100219.31;;;13.74;77.61
39267;BME280;24967;51.154;13.812;2023-05-20T03:56:19;100220.53;;;13.80;77.65
39267;BME280;24967;51.154;13.812;2023-05-20T03:58:47;100220.66;;;13.79;77.36
39267;BME280;24967;51.154;13.812;2023-05-20T04:01:14;100220.81;;;13.77;77.71
39267;BME280;24967;51.154;13.812;2023-05-20T04:03:40;100221.88;;;13.84;77.78
39267;BME280;24967;51.154;13.812;2023-05-20T04:06:07;100225.88;;;13.80;78.13
39267;BME280;24967;51.154;13.812;2023-05-20T04:08:34;100229.50;;;13.79;78.18
39267;BME280;24967;51.154;13.812;2023-05-20T04:11:01;100228.44;;;13.90;77.90
39267;BME280;24967;51.154;13.812;2023-05-20T04:13:27;100226.53;;;13.82;77.51
39267;BME280;24967;51.154;13.812;2023-05-20T04:15:55;100219.59;;;13.89;77.76
39267;BME280;24967;51.154;13.812;2023-05-20T04:18:22;100221.25;;;13.90;77.66
39267;BME280;24967;51.154;13.812;2023-05-20T04:20:48;100215.34;;;14.05;77.36
39267;BME280;24967;51.154;13.812;2023-05-20T04:23:15;100209.72;;;13.90;77.35
39267;BME280;24967;51.154;13.812;2023-05-20T04:25:41;100214.59;;;13.94;77.39
39267;BME280;24967;51.154;13.812;2023-05-20T04:28:08;100211.81;;;13.78;78.64
39267;BME280;24967;51.154;13.812;2023-05-20T04:30:38;100224.41;;;13.86;78.12
39267;BME280;24967;51.154;13.812;2023-05-20T04:33:06;100227.09;;;13.86;78.43
39267;BME280;24967;51.154;13.812;2023-05-20T04:35:32;100232.69;;;13.83;78.29
39267;BME280;24967;51.154;13.812;2023-05-20T04:38:01;100230.28;;;13.89;78.41
39267;BME280;24967;51.154;13.812;2023-05-20T04:40:28;100225.25;;;13.86;78.11
39267;BME280;24967;51.154;13.812;2023-05-20T04:42:54;100229.69;;;14.04;77.95
39267;BME280;24967;51.154;13.812;2023-05-20T04:45:22;100218.91;;;13.87;78.95
39267;BME280;24967;51.154;13.812;2023-05-20T04:47:49;100225.25;;;13.86;78.98
39267;BME280;24967;51.154;13.812;2023-05-20T04:50:18;100220.25;;;13.91;78.86
39267;BME280;24967;51.154;13.812;2023-05-20T04:52:45;100230.00;;;14.01;78.44
39267;BME280;24967;51.154;13.812;2023-05-20T04:55:12;100226.66;;;13.98;78.51
39267;BME280;24967;51.154;13.812;2023-05-20T04:57:40;100236.47;;;14.16;77.92
39267;BME280;24967;51.154;13.812;2023-05-20T05:00:07;100223.72;;;14.10;78.54
39267;BME280;24967;51.154;13.812;2023-05-20T05:02:34;100226.09;;;14.13;78.29
39267;BME280;24967;51.154;13.812;2023-05-20T05:05:01;100228.75;;;14.13;78.38
39267;BME280;24967;51.154;13.812;2023-05-20T05:07:29;100222.78;;;14.19;78.44
39267;BME280;24967;51.154;13.812;2023-05-20T05:09:55;100222.22;;;14.07;78.94
39267;BME280;24967;51.154;13.812;2023-05-20T05:12:22;100221.63;;;14.21;78.53
39267;BME280;24967;51.154;13.812;2023-05-20T05:14:48;100228.75;;;14.13;78.84
39267;BME280;24967;51.154;13.812;2023-05-20T05:17:15;100220.91;;;14.11;79.08
39267;BME280;24967;51.154;13.812;2023-05-20T05:19:41;100221.75;;;14.38;77.69
39267;BME280;24967;51.154;13.812;2023-05-20T05:22:08;100221.69;;;14.30;77.83
39267;BME280;24967;51.154;13.812;2023-05-20T05:24:36;100224.94;;;14.41;78.02
39267;BME280;24967;51.154;13.812;2023-05-20T05:27:04;100225.38;;;14.29;78.38
39267;BME280;24967;51.154;13.812;2023-05-20T05:29:30;100226.91;;;14.39;77.85
39267;BME280;24967;51.154;13.812;2023-05-20T05:31:57;100225.09;;;14.40;77.75
39267;BME280;24967;51.154;13.812;2023-05-20T05:34:23;100223.75;;;14.62;77.09
39267;BME280;24967;51.154;13.812;2023-05-20T05:36:49;100216.75;;;14.43;78.21
39267;BME280;24967;51.154;13.812;2023-05-20T05:39:16;100222.31;;;14.50;77.80
39267;BME280;24967;51.154;13.812;2023-05-20T05:41:44;100223.28;;;14.49;77.77
39267;BME280;24967;51.154;13.812;2023-05-20T05:44:10;100217.88;;;14.32;78.80
39267;BME280;24967;51.154;13.812;2023-05-20T05:46:37;100224.88;;;14.33;79.32
39267;BME280;24967;51.154;13.812;2023-05-20T05:49:03;100220.47;;;14.50;78.53
39267;BME280;24967;51.154;13.812;2023-05-20T05:51:30;100223.84;;;14.52;77.58
39267;BME280;24967;51.154;13.812;2023-05-20T05:53:56;100217.38;;;14.37;77.70
39267;BME280;24967;51.154;13.812;2023-05-20T05:56:23;100227.84;;;14.22;78.59
39267;BME280;24967;51.154;13.812;2023-05-20T05:58:51;100220.78;;;14.21;79.58
39267;BME280;24967;51.154;13.812;2023-05-20T06:01:18;100220.28;;;14.43;78.57
39267;BME280;24967;51.154;13.812;2023-05-20T06:03:44;100216.97;;;14.50;78.48
39267;BME280;24967;51.154;13.812;2023-05-20T06:06:11;100217.03;;;14.58;77.72
39267;BME280;24967;51.154;13.812;2023-05-20T06:08:37;100215.41;;;14.73;77.05
39267;BME280;24967;51.154;13.812;2023-05-20T06:11:04;100215.78;;;14.78;76.86
39267;BME280;24967;51.154;13.812;2023-05-20T06:13:31;100202.91;;;14.82;76.28
39267;BME280;24967;51.154;13.812;2023-05-20T06:15:59;100224.22;;;14.57;77.63
39267;BME280;24967;51.154;13.812;2023-05-20T06:18:25;100219.59;;;14.76;77.49
39267;BME280;24967;51.154;13.812;2023-05-20T06:20:55;100211.44;;;14.77;76.91
39267;BME280;24967;51.154;13.812;2023-05-20T06:23:22;100206.81;;;14.96;76.37
39267;BME280;24967;51.154;13.812;2023-05-20T06:25:48;100204.28;;;14.94;76.03
39267;BME280;24967;51.154;13.812;2023-05-20T06:28:15;100202.31;;;15.04;75.85
39267;BME280;24967;51.154;13.812;2023-05-20T06:30:41;100206.91;;;15.28;75.45
39267;BME280;24967;51.154;13.812;2023-05-20T06:33:09;100208.91;;;15.34;74.68
39267;BME280;24967;51.154;13.812;2023-05-20T06:35:36;100208.22;;;15.32;74.21
39267;BME280;24967;51.154;13.812;2023-05-20T06:38:02;100208.06;;;15.26;74.39
39267;BME280;24967;51.154;13.812;2023-05-20T06:40:29;100209.53;;;15.12;74.45
39267;BME280;24967;51.154;13.812;2023-05-20T06:42:55;100209.41;;;14.79;75.59
39267;BME280;24967;51.154;13.812;2023-05-20T06:45:22;100209.28;;;14.81;76.19
39267;BME280;24967;51.154;13.812;2023-05-20T06:47:48;100206.75;;;14.79;76.52
39267;BME280;24967;51.154;13.812;2023-05-20T06:50:16;100200.13;;;15.00;76.19
39267;BME280;24967;51.154;13.812;2023-05-20T06:52:42;100206.03;;;15.20;75.21
39267;BME280;24967;51.154;13.812;2023-05-20T06:55:10;100198.84;;;15.37;74.69
39267;BME280;24967;51.154;13.812;2023-05-20T06:57:36;100196.00;;;15.30;74.92
39267;BME280;24967;51.154;13.812;2023-05-20T07:00:04;100188.00;;;15.46;74.40
39267;BME280;24967;51.154;13.812;2023-05-20T07:02:32;100193.03;;;15.49;73.93
39267;BME280;24967;51.154;13.812;2023-05-20T07:04:58;100196.53;;;15.50;74.67
39267;BME280;24967;51.154;13.812;2023-05-20T07:07:26;100195.34;;;15.44;74.87
39267;BME280;24967;51.154;13.812;2023-05-20T07:09:54;100192.72;;;15.77;73.28
39267;BME280;24967;51.154;13.812;2023-05-20T07:12:20;100188.00;;;15.87;72.79
39267;BME280;24967;51.154;13.812;2023-05-20T07:14:47;100188.16;;;15.53;73.99
39267;BME280;24967;51.154;13.812;2023-05-20T07:17:13;100188.19;;;15.69;73.46
39267;BME280;24967;51.154;13.812;2023-05-20T07:19:40;100172.75;;;15.88;72.77
39267;BME280;24967;51.154;13.812;2023-05-20T07:22:08;100175.25;;;15.97;72.25
39267;BME280;24967;51.154;13.812;2023-05-20T07:24:39;100176.09;;;16.06;72.03
39267;BME280;24967;51.154;13.812;2023-05-20T07:27:06;100163.69;;;15.97;73.13
39267;BME280;24967;51.154;13.812;2023-05-20T07:29:34;100177.25;;;16.20;72.12
39267;BME280;24967;51.154;13.812;2023-05-20T07:32:02;100168.34;;;16.19;72.13
39267;BME280;24967;51.154;13.812;2023-05-20T07:34:31;100174.34;;;16.30;72.02
39267;BME280;24967;51.154;13.812;2023-05-20T07:36:57;100166.44;;;16.36;71.53
39267;BME280;24967;51.154;13.812;2023-05-20T07:39:24;100164.00;;;16.66;70.60
39267;BME280;24967;51.154;13.812;2023-05-20T07:41:53;100168.03;;;16.62;70.29
39267;BME280;24967;51.154;13.812;2023-05-20T07:44:19;100158.28;;;16.61;69.66
39267;BME280;24967;51.154;13.812;2023-05-20T07:46:47;100167.25;;;16.53;69.91
39267;BME280;24967;51.154;13.812;2023-05-20T07:49:14;100162.69;;;16.54;70.30
39267;BME280;24967;51.154;13.812;2023-05-20T07:51:40;100166.44;;;16.84;69.53
39267;BME280;24967;51.154;13.812;2023-05-20T07:54:07;100168.78;;;16.87;69.45
39267;BME280;24967;51.154;13.812;2023-05-20T07:56:34;100173.00;;;17.12;69.09
39267;BME280;24967;51.154;13.812;2023-05-20T07:59:02;100169.72;;;17.02;68.41
39267;BME280;24967;51.154;13.812;2023-05-20T08:01:28;100167.72;;;16.96;68.69
39267;BME280;24967;51.154;13.812;2023-05-20T08:03:55;100162.63;;;16.78;68.69
39267;BME280;24967;51.154;13.812;2023-05-20T08:06:22;100169.59;;;16.96;69.50
39267;BME280;24967;51.154;13.812;2023-05-20T08:08:49;100169.38;;;16.97;68.62
39267;BME280;24967;51.154;13.812;2023-05-20T08:11:18;100168.03;;;17.01;68.08
39267;BME280;24967;51.154;13.812;2023-05-20T08:13:44;100162.41;;;17.19;68.47
39267;BME280;24967;51.154;13.812;2023-05-20T08:16:12;100170.09;;;17.22;68.43
39267;BME280;24967;51.154;13.812;2023-05-20T08:18:39;100153.38;;;17.35;67.26
39267;BME280;24967;51.154;13.812;2023-05-20T08:21:05;100160.16;;;17.69;66.84
39267;BME280;24967;51.154;13.812;2023-05-20T08:23:35;100155.66;;;17.84;65.54
39267;BME280;24967;51.154;13.812;2023-05-20T08:26:02;100142.22;;;17.84;65.75
39267;BME280;24967;51.154;13.812;2023-05-20T08:28:29;100141.78;;;18.10;65.39
39267;BME280;24967;51.154;13.812;2023-05-20T08:30:56;100148.03;;;18.25;64.43
39267;BME280;24967;51.154;13.812;2023-05-20T08:33:24;100132.88;;;18.39;65.88
39267;BME280;24967;51.154;13.812;2023-05-20T08:35:51;100143.00;;;18.52;64.83
39267;BME280;24967;51.154;13.812;2023-05-20T08:38:17;100139.19;;;18.61;63.25
39267;BME280;24967;51.154;13.812;2023-05-20T08:40:44;100136.19;;;18.71;62.90
39267;BME280;24967;51.154;13.812;2023-05-20T08:43:11;100132.66;;;18.85;63.13
39267;BME280;24967;51.154;13.812;2023-05-20T08:45:38;100134.25;;;18.65;62.27
39267;BME280;24967;51.154;13.812;2023-05-20T08:48:05;100129.44;;;18.96;62.60
39267;BME280;24967;51.154;13.812;2023-05-20T08:50:33;100124.16;;;19.25;61.40
39267;BME280;24967;51.154;13.812;2023-05-20T08:52:59;100123.81;;;19.34;60.91
39267;BME280;24967;51.154;13.812;2023-05-20T08:55:31;100118.28;;;19.21;60.98
39267;BME280;24967;51.154;13.812;2023-05-20T08:58:02;100108.66;;;19.12;60.63
39267;BME280;24967;51.154;13.812;2023-05-20T09:00:28;100114.00;;;19.27;61.00
39267;BME280;24967;51.154;13.812;2023-05-20T09:02:57;100120.97;;;18.99;60.78
39267;BME280;24967;51.154;13.812;2023-05-20T09:05:24;100125.03;;;19.32;60.10
39267;BME280;24967;51.154;13.812;2023-05-20T09:08:03;100122.66;;;19.01;62.34
39267;BME280;24967;51.154;13.812;2023-05-20T09:10:31;100121.50;;;19.31;61.61
39267;BME280;24967;51.154;13.812;2023-05-20T09:12:59;100130.09;;;19.41;60.65
39267;BME280;24967;51.154;13.812;2023-05-20T09:15:26;100132.06;;;19.54;59.93
39267;BME280;24967;51.154;13.812;2023-05-20T09:17:52;100118.69;;;19.18;60.19
39267;BME280;24967;51.154;13.812;2023-05-20T09:20:20;100127.78;;;19.17;61.15
39267;BME280;24967;51.154;13.812;2023-05-20T09:22:50;100131.00;;;19.49;61.41
39267;BME280;24967;51.154;13.812;2023-05-20T09:25:19;100134.38;;;19.57;60.00
39267;BME280;24967;51.154;13.812;2023-05-20T09:27:45;100130.75;;;19.65;60.71
39267;BME280;24967;51.154;13.812;2023-05-20T09:30:12;100125.78;;;19.97;59.88
39267;BME280;24967;51.154;13.812;2023-05-20T09:32:40;100123.47;;;19.94;59.24
39267;BME280;24967;51.154;13.812;2023-05-20T09:35:07;100121.66;;;19.73;59.15
39267;BME280;24967;51.154;13.812;2023-05-20T09:37:34;100116.34;;;19.79;60.62
39267;BME280;24967;51.154;13.812;2023-05-20T09:40:03;100113.34;;;19.96;59.09
39267;BME280;24967;51.154;13.812;2023-05-20T09:42:38;100120.00;;;20.00;58.68
39267;BME280;24967;51.154;13.812;2023-05-20T09:45:06;100117.44;;;20.26;60.61
39267;BME280;24967;51.154;13.812;2023-05-20T09:47:34;100105.25;;;20.30;59.00
39267;BME280;24967;51.154;13.812;2023-05-20T09:50:02;100109.56;;;20.25;58.43
39267;BME280;24967;51.154;13.812;2023-05-20T09:52:28;100107.16;;;20.43;58.55
39267;BME280;24967;51.154;13.812;2023-05-20T09:54:56;100098.50;;;20.54;58.12
39267;BME280;24967;51.154;13.812;2023-05-20T09:57:23;100095.63;;;20.69;58.55
39267;BME280;24967;51.154;13.812;2023-05-20T09:59:51;100086.41;;;20.50;58.25
39267;BME280;24967;51.154;13.812;2023-05-20T10:02:19;100081.84;;;20.51;57.66
39267;BME280;24967;51.154;13.812;2023-05-20T10:04:48;100085.47;;;20.23;58.52
39267;BME280;24967;51.154;13.812;2023-05-20T10:07:40;100082.56;;;20.25;58.27
39267;BME280;24967;51.154;13.812;2023-05-20T10:10:20;100078.69;;;20.41;60.15
39267;BME280;24967;51.154;13.812;2023-05-20T10:12:57;100069.44;;;20.56;58.50
39267;BME280;24967;51.154;13.812;2023-05-20T10:15:31;100065.16;;;21.02;58.34
39267;BME280;24967;51.154;13.812;2023-05-20T10:18:10;100055.63;;;21.13;56.61
39267;BME280;24967;51.154;13.812;2023-05-20T10:20:45;100058.28;;;20.93;57.39
39267;BME280;24967;51.154;13.812;2023-05-20T10:23:19;100054.53;;;20.74;57.90
39267;BME280;24967;51.154;13.812;2023-05-20T10:25:49;100059.72;;;20.75;58.93
39267;BME280;24967;51.154;13.812;2023-05-20T10:28:26;100058.09;;;20.94;57.97
39267;BME280;24967;51.154;13.812;2023-05-20T10:30:55;100065.59;;;21.05;58.20
39267;BME280;24967;51.154;13.812;2023-05-20T10:33:21;100054.78;;;20.99;57.06
39267;BME280;24967;51.154;13.812;2023-05-20T10:35:49;100054.34;;;20.82;56.62
39267;BME280;24967;51.154;13.812;2023-05-20T10:38:17;100056.25;;;21.21;56.95
39267;BME280;24967;51.154;13.812;2023-05-20T10:40:45;100048.16;;;21.48;55.89
39267;BME280;24967;51.154;13.812;2023-05-20T10:43:12;100051.03;;;21.26;56.66
39267;BME280;24967;51.154;13.812;2023-05-20T10:45:49;100050.22;;;21.06;57.23
39267;BME280;24967;51.154;13.812;2023-05-20T10:48:23;100055.41;;;21.14;57.15
39267;BME280;24967;51.154;13.812;2023-05-20T10:50:52;100048.56;;;21.45;57.09
39267;BME280;24967;51.154;13.812;2023-05-20T10:53:21;100046.69;;;21.65;56.71
39267;BME280;24967;51.154;13.812;2023-05-20T10:55:50;100048.56;;;21.65;54.27
39267;BME280;24967;51.154;13.812;2023-05-20T10:58:20;100044.81;;;21.59;56.14
39267;BME280;24967;51.154;13.812;2023-05-20T11:00:47;100039.41;;;21.72;56.84
39267;BME280;24967;51.154;13.812;2023-05-20T11:03:15;100033.06;;;21.99;55.52
39267;BME280;24967;51.154;13.812;2023-05-20T11:05:43;100034.94;;;22.05;55.45
39267;BME280;24967;51.154;13.812;2023-05-20T11:08:11;100038.53;;;21.85;55.32
39267;BME280;24967;51.154;13.812;2023-05-20T11:10:37;100030.44;;;21.65;55.09
39267;BME280;24967;51.154;13.812;2023-05-20T11:13:04;100029.44;;;21.53;56.30
39267;BME280;24967;51.154;13.812;2023-05-20T11:15:33;100026.94;;;21.38;56.38
39267;BME280;24967;51.154;13.812;2023-05-20T11:18:02;100018.41;;;21.48;56.66
39267;BME280;24967;51.154;13.812;2023-05-20T11:20:30;100021.28;;;21.66;56.14
39267;BME280;24967;51.154;13.812;2023-05-20T11:23:01;100023.09;;;21.92;55.62
39267;BME280;24967;51.154;13.812;2023-05-20T11:25:28;100016.00;;;21.98;55.35
39267;BME280;24967;51.154;13.812;2023-05-20T11:27:55;100023.38;;;22.36;55.17
39267;BME280;24967;51.154;13.812;2023-05-20T11:30:22;100022.00;;;22.58;54.19
39267;BME280;24967;51.154;13.812;2023-05-20T11:32:59;100016.16;;;22.61;53.74
39267;BME280;24967;51.154;13.812;2023-05-20T11:35:27;100012.22;;;22.12;54.71
39267;BME280;24967;51.154;13.812;2023-05-20T11:37:55;100009.78;;;21.84;55.00
39267;BME280;24967;51.154;13.812;2023-05-20T11:40:24;100007.28;;;21.89;55.63
39267;BME280;24967;51.154;13.812;2023-05-20T11:42:53;100002.94;;;21.88;55.68
39267;BME280;24967;51.154;13.812;2023-05-20T11:45:21;99999.53;;;22.00;55.92
39267;BME280;24967;51.154;13.812;2023-05-20T11:47:58;99997.84;;;22.18;55.66
39267;BME280;24967;51.154;13.812;2023-05-20T11:50:24;99999.13;;;22.54;54.82
39267;BME280;24967;51.154;13.812;2023-05-20T11:52:56;99982.81;;;22.61;53.35
39267;BME280;24967;51.154;13.812;2023-05-20T11:55:24;99984.66;;;22.67;54.49
39267;BME280;24967;51.154;13.812;2023-05-20T11:57:51;99981.84;;;22.80;53.64
39267;BME280;24967;51.154;13.812;2023-05-20T12:00:18;99987.72;;;23.09;55.18
39267;BME280;24967;51.154;13.812;2023-05-20T12:02:45;99985.41;;;23.31;53.51
39267;BME280;24967;51.154;13.812;2023-05-20T12:05:11;99989.91;;;23.19;51.91
39267;BME280;24967;51.154;13.812;2023-05-20T12:07:38;99986.19;;;23.13;52.63
39267;BME280;24967;51.154;13.812;2023-05-20T12:10:06;99984.50;;;23.19;52.81
39267;BME280;24967;51.154;13.812;2023-05-20T12:12:34;99980.28;;;23.23;52.84
39267;BME280;24967;51.154;13.812;2023-05-20T12:15:01;99975.97;;;23.59;53.00
39267;BME280;24967;51.154;13.812;2023-05-20T12:17:28;99975.00;;;23.71;52.46
39267;BME280;24967;51.154;13.812;2023-05-20T12:19:54;99965.28;;;23.64;52.10
39267;BME280;24967;51.154;13.812;2023-05-20T12:22:21;99959.38;;;23.48;51.93
39267;BME280;24967;51.154;13.812;2023-05-20T12:24:48;99945.91;;;23.60;52.22
39267;BME280;24967;51.154;13.812;2023-05-20T12:27:15;99941.50;;;23.96;52.41
39267;BME280;24967;51.154;13.812;2023-05-20T12:29:43;99940.94;;;23.94;51.67
39267;BME280;24967;51.154;13.812;2023-05-20T12:32:09;99938.69;;;24.21;51.87
39267;BME280;24967;51.154;13.812;2023-05-20T12:34:36;99938.97;;;24.31;51.00
39267;BME280;24967;51.154;13.812;2023-05-20T12:37:02;99936.84;;;24.33;50.69
39267;BME280;24967;51.154;13.812;2023-05-20T12:39:29;99921.66;;;24.44;51.11
39267;BME280;24967;51.154;13.812;2023-05-20T12:41:55;99931.16;;;24.65;51.09